CYDF/YDF METAR and TAF weather

Enter ICAO airport designator
Station Type Date Time Source
CYDF METAR 2021/05/12 02:00 UTC NOAA

CYDF 120200Z 24005KT 15SM BKN019 OVC044 04/02 A2979 RMK SC6SC2 SLP089


Station Type Date Time Source
CYDF Decoded METAR 2021/05/12 02:00 UTC NOAA

Deer Lake, Nfld., Canada (CYDF) 49-13N 057-24W 22M
May 11, 2021 - 10:00 PM EDT / 2021.05.12 0200 UTC
Wind: from the WSW (240 degrees) at 6 MPH (5 KT):0
Visibility: 15 mile(s):0
Sky conditions: overcast
Temperature: 39 F (4 C)
Dew Point: 35 F (2 C)
Relative Humidity: 86%
Pressure (altimeter): 29.79 in. Hg (1008 hPa)
ob: CYDF 120200Z 24005KT 15SM BKN019 OVC044 04/02 A2979 RMK SC6SC2 SLP089
cycle: 2

Station Type Date Time Source
CYDF TAF 2021/05/12 02:39 UTC NOAA

TAF CYDF 120138Z 1202/1214 27006KT P6SM -SHRA OVC015
TEMPO 1202/1212 P6SM NSW BKN025
FM121200 27008KT P6SM -SHRA BKN030
BECMG 1212/1214 27012KT
RMK NXT FCST BY 120800Z

Example: see airport list